Terminal Aerodrome Forecast
Issued by NWS Buffalo, NY

Home | Current Version | Previous Version | Text Only | Print | Product List | Glossary On
Versions: 1 2 3 4 5 6 7 8 9 10 11 12 13 14 15 16 17 18 19 20 21 22 23 24 25
000
FTUS41 KBUF 152300
TAFROC
TAF
KROC 152335Z 1600/1624 05003KT P6SM BKN070 OVC110
     FM160200 19004KT 6SM -SHRA SCT025 OVC050
     FM160600 22005KT 6SM -SHRA SCT025 OVC040
     FM160800 24005KT P6SM SCT025 OVC030
     FM161000 26007KT P6SM BKN020 BKN100
     FM161200 31010KT P6SM BKN020 BKN100
     FM161300 31010KT P6SM SCT100 BKN250=

USA.gov is the U.S. government's official web portal to all federal, state and local government web resources and services.